sensor_id;sensor_type;location;lat;lon;timestamp;P1;durP1;ratioP1;P2;durP2;ratioP2
77872;SDS011;67068;52.116;4.440;2023-11-21T00:01:36;8.23;;;2.80;;
77872;SDS011;67068;52.116;4.440;2023-11-21T00:04:02;8.55;;;2.70;;
77872;SDS011;67068;52.116;4.440;2023-11-21T00:06:27;8.85;;;2.60;;
77872;SDS011;67068;52.116;4.440;2023-11-21T00:08:52;7.43;;;2.50;;
77872;SDS011;67068;52.116;4.440;2023-11-21T00:11:18;9.40;;;2.97;;
77872;SDS011;67068;52.116;4.440;2023-11-21T00:13:43;8.17;;;2.47;;
77872;SDS011;67068;52.116;4.440;2023-11-21T00:16:08;10.18;;;2.60;;
77872;SDS011;67068;52.116;4.440;2023-11-21T00:18:34;8.33;;;2.33;;
77872;SDS011;67068;52.116;4.440;2023-11-21T00:20:59;9.10;;;2.23;;
77872;SDS011;67068;52.116;4.440;2023-11-21T00:23:24;7.88;;;2.38;;
77872;SDS011;67068;52.116;4.440;2023-11-21T00:25:49;8.85;;;2.67;;
77872;SDS011;67068;52.116;4.440;2023-11-21T00:28:15;8.83;;;2.50;;
77872;SDS011;67068;52.116;4.440;2023-11-21T00:30:40;7.70;;;2.30;;
77872;SDS011;67068;52.116;4.440;2023-11-21T00:33:05;7.20;;;2.50;;
77872;SDS011;67068;52.116;4.440;2023-11-21T00:35:31;8.17;;;2.50;;
77872;SDS011;67068;52.116;4.440;2023-11-21T00:37:56;8.27;;;2.40;;
77872;SDS011;67068;52.116;4.440;2023-11-21T00:40:22;7.57;;;2.58;;
77872;SDS011;67068;52.116;4.440;2023-11-21T00:42:48;8.57;;;2.50;;
77872;SDS011;67068;52.116;4.440;2023-11-21T00:45:13;8.10;;;2.20;;
77872;SDS011;67068;52.116;4.440;2023-11-21T00:47:38;7.60;;;2.23;;
77872;SDS011;67068;52.116;4.440;2023-11-21T00:50:04;7.43;;;2.30;;
77872;SDS011;67068;52.116;4.440;2023-11-21T00:52:31;8.85;;;2.58;;
77872;SDS011;67068;52.116;4.440;2023-11-21T00:54:56;8.20;;;2.77;;
77872;SDS011;67068;52.116;4.440;2023-11-21T00:57:21;7.70;;;2.07;;
77872;SDS011;67068;52.116;4.440;2023-11-21T00:59:46;8.10;;;2.20;;
77872;SDS011;67068;52.116;4.440;2023-11-21T01:02:11;8.47;;;3.00;;
77872;SDS011;67068;52.116;4.440;2023-11-21T01:04:37;8.60;;;2.63;;
77872;SDS011;67068;52.116;4.440;2023-11-21T01:07:02;7.65;;;2.20;;
77872;SDS011;67068;52.116;4.440;2023-11-21T01:09:28;9.10;;;2.35;;
77872;SDS011;67068;52.116;4.440;2023-11-21T01:11:55;7.05;;;2.00;;
77872;SDS011;67068;52.116;4.440;2023-11-21T01:14:20;7.67;;;2.20;;
77872;SDS011;67068;52.116;4.440;2023-11-21T01:16:45;8.30;;;2.00;;
77872;SDS011;67068;52.116;4.440;2023-11-21T01:19:10;8.60;;;2.50;;
77872;SDS011;67068;52.116;4.440;2023-11-21T01:21:36;8.53;;;2.50;;
77872;SDS011;67068;52.116;4.440;2023-11-21T01:24:01;9.23;;;2.73;;
77872;SDS011;67068;52.116;4.440;2023-11-21T01:26:27;8.23;;;2.38;;
77872;SDS011;67068;52.116;4.440;2023-11-21T01:28:52;9.07;;;2.53;;
77872;SDS011;67068;52.116;4.440;2023-11-21T01:31:18;8.17;;;2.20;;
77872;SDS011;67068;52.116;4.440;2023-11-21T01:33:44;6.97;;;2.17;;
77872;SDS011;67068;52.116;4.440;2023-11-21T01:36:09;8.63;;;2.60;;
77872;SDS011;67068;52.116;4.440;2023-11-21T01:38:35;7.32;;;1.95;;
77872;SDS011;67068;52.116;4.440;2023-11-21T01:41:00;5.80;;;2.00;;
77872;SDS011;67068;52.116;4.440;2023-11-21T01:43:26;7.37;;;2.27;;
77872;SDS011;67068;52.116;4.440;2023-11-21T01:45:51;7.78;;;2.33;;
77872;SDS011;67068;52.116;4.440;2023-11-21T01:48:16;7.20;;;2.20;;
77872;SDS011;67068;52.116;4.440;2023-11-21T01:50:42;8.23;;;2.10;;
77872;SDS011;67068;52.116;4.440;2023-11-21T01:53:07;8.05;;;2.10;;
77872;SDS011;67068;52.116;4.440;2023-11-21T01:55:32;7.45;;;2.20;;
77872;SDS011;67068;52.116;4.440;2023-11-21T01:57:59;6.47;;;2.05;;
77872;SDS011;67068;52.116;4.440;2023-11-21T02:00:25;8.23;;;2.25;;
77872;SDS011;67068;52.116;4.440;2023-11-21T02:02:53;6.40;;;2.00;;
77872;SDS011;67068;52.116;4.440;2023-11-21T02:05:18;8.63;;;2.30;;
77872;SDS011;67068;52.116;4.440;2023-11-21T02:07:44;6.85;;;2.03;;
77872;SDS011;67068;52.116;4.440;2023-11-21T02:10:09;6.60;;;1.85;;
77872;SDS011;67068;52.116;4.440;2023-11-21T02:12:35;8.83;;;2.40;;
77872;SDS011;67068;52.116;4.440;2023-11-21T02:15:01;7.17;;;2.10;;
77872;SDS011;67068;52.116;4.440;2023-11-21T02:17:27;8.40;;;2.60;;
77872;SDS011;67068;52.116;4.440;2023-11-21T02:19:53;7.03;;;1.93;;
77872;SDS011;67068;52.116;4.440;2023-11-21T02:22:18;6.60;;;1.93;;
77872;SDS011;67068;52.116;4.440;2023-11-21T02:24:45;6.85;;;2.25;;
77872;SDS011;67068;52.116;4.440;2023-11-21T02:27:12;7.43;;;2.17;;
77872;SDS011;67068;52.116;4.440;2023-11-21T02:29:37;6.85;;;2.22;;
77872;SDS011;67068;52.116;4.440;2023-11-21T02:32:03;7.72;;;2.17;;
77872;SDS011;67068;52.116;4.440;2023-11-21T02:34:28;5.63;;;1.75;;
77872;SDS011;67068;52.116;4.440;2023-11-21T02:36:54;4.80;;;1.60;;
77872;SDS011;67068;52.116;4.440;2023-11-21T02:39:19;6.47;;;2.33;;
77872;SDS011;67068;52.116;4.440;2023-11-21T02:41:47;6.32;;;1.85;;
77872;SDS011;67068;52.116;4.440;2023-11-21T02:44:12;7.20;;;2.10;;
77872;SDS011;67068;52.116;4.440;2023-11-21T02:46:38;8.17;;;2.23;;
77872;SDS011;67068;52.116;4.440;2023-11-21T02:49:05;7.10;;;2.22;;
77872;SDS011;67068;52.116;4.440;2023-11-21T02:51:35;7.03;;;2.38;;
77872;SDS011;67068;52.116;4.440;2023-11-21T02:54:00;7.97;;;2.40;;
77872;SDS011;67068;52.116;4.440;2023-11-21T02:56:27;5.18;;;1.60;;
77872;SDS011;67068;52.116;4.440;2023-11-21T02:58:55;7.05;;;1.75;;
77872;SDS011;67068;52.116;4.440;2023-11-21T03:01:20;6.72;;;1.98;;
77872;SDS011;67068;52.116;4.440;2023-11-21T03:03:46;6.13;;;1.80;;
77872;SDS011;67068;52.116;4.440;2023-11-21T03:06:12;7.63;;;2.00;;
77872;SDS011;67068;52.116;4.440;2023-11-21T03:08:37;6.87;;;2.13;;
77872;SDS011;67068;52.116;4.440;2023-11-21T03:11:03;5.70;;;1.67;;
77872;SDS011;67068;52.116;4.440;2023-11-21T03:13:28;7.43;;;2.23;;
77872;SDS011;67068;52.116;4.440;2023-11-21T03:15:53;7.18;;;2.17;;
77872;SDS011;67068;52.116;4.440;2023-11-21T03:18:19;6.43;;;1.90;;
77872;SDS011;67068;52.116;4.440;2023-11-21T03:20:47;6.00;;;1.90;;
77872;SDS011;67068;52.116;4.440;2023-11-21T03:23:12;6.43;;;2.00;;
77872;SDS011;67068;52.116;4.440;2023-11-21T03:25:37;7.37;;;2.23;;
77872;SDS011;67068;52.116;4.440;2023-11-21T03:28:02;6.67;;;2.13;;
77872;SDS011;67068;52.116;4.440;2023-11-21T03:30:28;5.43;;;1.58;;
77872;SDS011;67068;52.116;4.440;2023-11-21T03:32:53;6.43;;;2.00;;
77872;SDS011;67068;52.116;4.440;2023-11-21T03:35:18;5.70;;;1.60;;
77872;SDS011;67068;52.116;4.440;2023-11-21T03:37:46;7.03;;;2.03;;
77872;SDS011;67068;52.116;4.440;2023-11-21T03:40:11;6.27;;;2.00;;
77872;SDS011;67068;52.116;4.440;2023-11-21T03:42:37;6.88;;;2.13;;
77872;SDS011;67068;52.116;4.440;2023-11-21T03:45:03;6.07;;;1.85;;
77872;SDS011;67068;52.116;4.440;2023-11-21T03:47:28;5.95;;;1.90;;
77872;SDS011;67068;52.116;4.440;2023-11-21T03:49:53;6.47;;;1.83;;
77872;SDS011;67068;52.116;4.440;2023-11-21T03:52:18;5.83;;;1.70;;
77872;SDS011;67068;52.116;4.440;2023-11-21T03:54:43;6.33;;;2.07;;
77872;SDS011;67068;52.116;4.440;2023-11-21T03:57:09;6.93;;;2.00;;
77872;SDS011;67068;52.116;4.440;2023-11-21T03:59:34;6.20;;;1.87;;
77872;SDS011;67068;52.116;4.440;2023-11-21T04:01:59;6.38;;;2.13;;
77872;SDS011;67068;52.116;4.440;2023-11-21T04:04:25;6.07;;;1.90;;
77872;SDS011;67068;52.116;4.440;2023-11-21T04:06:50;5.85;;;1.88;;
77872;SDS011;67068;52.116;4.440;2023-11-21T04:09:16;5.20;;;1.83;;
77872;SDS011;67068;52.116;4.440;2023-11-21T04:11:42;5.57;;;1.80;;
77872;SDS011;67068;52.116;4.440;2023-11-21T04:14:08;6.68;;;1.73;;
77872;SDS011;67068;52.116;4.440;2023-11-21T04:16:33;6.47;;;1.95;;
77872;SDS011;67068;52.116;4.440;2023-11-21T04:18:58;6.07;;;1.90;;
77872;SDS011;67068;52.116;4.440;2023-11-21T04:21:24;5.97;;;1.70;;
77872;SDS011;67068;52.116;4.440;2023-11-21T04:23:49;5.97;;;1.73;;
77872;SDS011;67068;52.116;4.440;2023-11-21T04:26:14;5.53;;;1.77;;
77872;SDS011;67068;52.116;4.440;2023-11-21T04:28:39;6.60;;;1.80;;
77872;SDS011;67068;52.116;4.440;2023-11-21T04:31:04;5.47;;;1.60;;
77872;SDS011;67068;52.116;4.440;2023-11-21T04:33:30;5.15;;;1.85;;
77872;SDS011;67068;52.116;4.440;2023-11-21T04:35:56;7.13;;;2.03;;
77872;SDS011;67068;52.116;4.440;2023-11-21T04:38:21;6.97;;;2.00;;
77872;SDS011;67068;52.116;4.440;2023-11-21T04:40:47;5.10;;;1.50;;
77872;SDS011;67068;52.116;4.440;2023-11-21T04:43:12;4.80;;;1.70;;
77872;SDS011;67068;52.116;4.440;2023-11-21T04:45:37;3.80;;;1.23;;
77872;SDS011;67068;52.116;4.440;2023-11-21T04:48:02;5.93;;;1.80;;
77872;SDS011;67068;52.116;4.440;2023-11-21T04:50:28;6.90;;;1.80;;
77872;SDS011;67068;52.116;4.440;2023-11-21T04:52:54;6.07;;;1.70;;
77872;SDS011;67068;52.116;4.440;2023-11-21T04:55:19;5.55;;;1.63;;
77872;SDS011;67068;52.116;4.440;2023-11-21T04:57:44;5.07;;;1.40;;
77872;SDS011;67068;52.116;4.440;2023-11-21T05:00:10;4.82;;;1.70;;
77872;SDS011;67068;52.116;4.440;2023-11-21T05:02:35;4.32;;;1.35;;
77872;SDS011;67068;52.116;4.440;2023-11-21T05:05:04;5.30;;;1.50;;
77872;SDS011;67068;52.116;4.440;2023-11-21T05:07:30;6.30;;;1.90;;
77872;SDS011;67068;52.116;4.440;2023-11-21T05:09:56;4.73;;;1.70;;
77872;SDS011;67068;52.116;4.440;2023-11-21T05:12:24;4.97;;;1.37;;
77872;SDS011;67068;52.116;4.440;2023-11-21T05:14:50;4.90;;;1.63;;
77872;SDS011;67068;52.116;4.440;2023-11-21T05:17:15;5.18;;;1.60;;
77872;SDS011;67068;52.116;4.440;2023-11-21T05:19:40;5.00;;;1.60;;
77872;SDS011;67068;52.116;4.440;2023-11-21T05:22:06;5.93;;;1.50;;
77872;SDS011;67068;52.116;4.440;2023-11-21T05:24:31;6.03;;;1.83;;
77872;SDS011;67068;52.116;4.440;2023-11-21T05:26:56;5.73;;;1.67;;
77872;SDS011;67068;52.116;4.440;2023-11-21T05:29:22;4.33;;;1.30;;
77872;SDS011;67068;52.116;4.440;2023-11-21T05:31:47;4.38;;;1.45;;
77872;SDS011;67068;52.116;4.440;2023-11-21T05:34:12;6.83;;;2.00;;
77872;SDS011;67068;52.116;4.440;2023-11-21T05:36:37;5.70;;;1.37;;
77872;SDS011;67068;52.116;4.440;2023-11-21T05:39:03;5.77;;;1.50;;
77872;SDS011;67068;52.116;4.440;2023-11-21T05:41:29;5.03;;;1.50;;
77872;SDS011;67068;52.116;4.440;2023-11-21T05:43:54;5.17;;;1.57;;
77872;SDS011;67068;52.116;4.440;2023-11-21T05:46:19;4.87;;;1.50;;
77872;SDS011;67068;52.116;4.440;2023-11-21T05:48:44;5.70;;;1.60;;
77872;SDS011;67068;52.116;4.440;2023-11-21T05:51:11;5.13;;;1.23;;
77872;SDS011;67068;52.116;4.440;2023-11-21T05:53:37;5.38;;;1.40;;
77872;SDS011;67068;52.116;4.440;2023-11-21T05:56:02;5.22;;;1.40;;
77872;SDS011;67068;52.116;4.440;2023-11-21T05:58:28;4.93;;;1.40;;
77872;SDS011;67068;52.116;4.440;2023-11-21T06:00:54;4.27;;;1.30;;
77872;SDS011;67068;52.116;4.440;2023-11-21T06:03:19;4.00;;;1.20;;
77872;SDS011;67068;52.116;4.440;2023-11-21T06:05:44;4.57;;;1.20;;
77872;SDS011;67068;52.116;4.440;2023-11-21T06:08:09;3.97;;;1.30;;
77872;SDS011;67068;52.116;4.440;2023-11-21T06:10:35;5.18;;;1.30;;
77872;SDS011;67068;52.116;4.440;2023-11-21T06:13:00;5.37;;;1.27;;
77872;SDS011;67068;52.116;4.440;2023-11-21T06:15:26;4.10;;;1.30;;
77872;SDS011;67068;52.116;4.440;2023-11-21T06:17:51;3.77;;;1.23;;
77872;SDS011;67068;52.116;4.440;2023-11-21T06:20:19;4.38;;;1.13;;
77872;SDS011;67068;52.116;4.440;2023-11-21T06:22:47;3.97;;;1.13;;
77872;SDS011;67068;52.116;4.440;2023-11-21T06:25:13;4.32;;;1.30;;
77872;SDS011;67068;52.116;4.440;2023-11-21T06:27:42;4.22;;;1.23;;
77872;SDS011;67068;52.116;4.440;2023-11-21T06:30:07;3.47;;;1.20;;
77872;SDS011;67068;52.116;4.440;2023-11-21T06:32:34;5.28;;;1.70;;
77872;SDS011;67068;52.116;4.440;2023-11-21T06:35:00;3.85;;;1.20;;
77872;SDS011;67068;52.116;4.440;2023-11-21T06:37:29;3.53;;;1.10;;
77872;SDS011;67068;52.116;4.440;2023-11-21T06:39:55;5.30;;;1.42;;
77872;SDS011;67068;52.116;4.440;2023-11-21T06:42:21;3.45;;;1.10;;
77872;SDS011;67068;52.116;4.440;2023-11-21T06:44:46;3.63;;;1.10;;
77872;SDS011;67068;52.116;4.440;2023-11-21T06:47:13;2.97;;;1.10;;
77872;SDS011;67068;52.116;4.440;2023-11-21T06:49:38;3.33;;;1.33;;
77872;SDS011;67068;52.116;4.440;2023-11-21T06:52:06;4.70;;;1.60;;
77872;SDS011;67068;52.116;4.440;2023-11-21T06:54:33;4.25;;;1.33;;
77872;SDS011;67068;52.116;4.440;2023-11-21T06:56:58;2.95;;;1.00;;
77872;SDS011;67068;52.116;4.440;2023-11-21T06:59:24;4.30;;;1.23;;
77872;SDS011;67068;52.116;4.440;2023-11-21T07:01:49;3.58;;;1.20;;
77872;SDS011;67068;52.116;4.440;2023-11-21T07:04:15;4.97;;;1.37;;
77872;SDS011;67068;52.116;4.440;2023-11-21T07:06:40;5.27;;;1.40;;
77872;SDS011;67068;52.116;4.440;2023-11-21T07:09:05;4.63;;;1.10;;
77872;SDS011;67068;52.116;4.440;2023-11-21T07:11:33;4.10;;;1.05;;
77872;SDS011;67068;52.116;4.440;2023-11-21T07:13:58;3.30;;;1.10;;
77872;SDS011;67068;52.116;4.440;2023-11-21T07:16:23;2.83;;;0.90;;
77872;SDS011;67068;52.116;4.440;2023-11-21T07:18:49;2.83;;;1.00;;
77872;SDS011;67068;52.116;4.440;2023-11-21T07:21:14;3.03;;;1.03;;
77872;SDS011;67068;52.116;4.440;2023-11-21T07:23:40;3.13;;;1.00;;
77872;SDS011;67068;52.116;4.440;2023-11-21T07:26:06;4.07;;;1.27;;
77872;SDS011;67068;52.116;4.440;2023-11-21T07:28:35;3.35;;;1.00;;
77872;SDS011;67068;52.116;4.440;2023-11-21T07:31:01;3.27;;;1.00;;
77872;SDS011;67068;52.116;4.440;2023-11-21T07:33:26;3.45;;;1.30;;
77872;SDS011;67068;52.116;4.440;2023-11-21T07:35:51;4.13;;;0.90;;
77872;SDS011;67068;52.116;4.440;2023-11-21T07:38:17;3.53;;;0.80;;
77872;SDS011;67068;52.116;4.440;2023-11-21T07:40:42;4.82;;;1.00;;
77872;SDS011;67068;52.116;4.440;2023-11-21T07:43:07;2.70;;;0.90;;
77872;SDS011;67068;52.116;4.440;2023-11-21T07:45:34;4.10;;;1.00;;
77872;SDS011;67068;52.116;4.440;2023-11-21T07:47:59;3.87;;;1.10;;
77872;SDS011;67068;52.116;4.440;2023-11-21T07:50:25;4.20;;;1.00;;
77872;SDS011;67068;52.116;4.440;2023-11-21T07:52:51;2.83;;;1.00;;
77872;SDS011;67068;52.116;4.440;2023-11-21T07:55:17;2.87;;;1.00;;
77872;SDS011;67068;52.116;4.440;2023-11-21T07:57:42;3.80;;;1.20;;
77872;SDS011;67068;52.116;4.440;2023-11-21T08:00:07;3.93;;;1.00;;
77872;SDS011;67068;52.116;4.440;2023-11-21T08:02:34;3.92;;;0.98;;
77872;SDS011;67068;52.116;4.440;2023-11-21T08:04:59;4.25;;;1.02;;
77872;SDS011;67068;52.116;4.440;2023-11-21T08:07:25;2.92;;;0.90;;
77872;SDS011;67068;52.116;4.440;2023-11-21T08:09:51;3.55;;;1.45;;
77872;SDS011;67068;52.116;4.440;2023-11-21T08:12:16;3.70;;;1.00;;
77872;SDS011;67068;52.116;4.440;2023-11-21T08:14:42;4.78;;;1.23;;
77872;SDS011;67068;52.116;4.440;2023-11-21T08:17:08;3.78;;;1.10;;
77872;SDS011;67068;52.116;4.440;2023-11-21T08:19:35;4.47;;;1.10;;
77872;SDS011;67068;52.116;4.440;2023-11-21T08:22:01;5.28;;;1.20;;
77872;SDS011;67068;52.116;4.440;2023-11-21T08:24:26;3.37;;;1.00;;
77872;SDS011;67068;52.116;4.440;2023-11-21T08:26:52;2.08;;;0.80;;
77872;SDS011;67068;52.116;4.440;2023-11-21T08:29:19;4.35;;;1.00;;
77872;SDS011;67068;52.116;4.440;2023-11-21T08:31:44;4.57;;;1.00;;
77872;SDS011;67068;52.116;4.440;2023-11-21T08:34:12;4.05;;;1.05;;
77872;SDS011;67068;52.116;4.440;2023-11-21T08:36:42;3.90;;;1.10;;
77872;SDS011;67068;52.116;4.440;2023-11-21T08:39:08;3.67;;;1.02;;
77872;SDS011;67068;52.116;4.440;2023-11-21T08:41:34;4.88;;;1.10;;
77872;SDS011;67068;52.116;4.440;2023-11-21T08:43:59;4.33;;;1.20;;
77872;SDS011;67068;52.116;4.440;2023-11-21T08:46:24;5.50;;;1.13;;
77872;SDS011;67068;52.116;4.440;2023-11-21T08:48:51;5.10;;;1.25;;
77872;SDS011;67068;52.116;4.440;2023-11-21T08:51:17;4.22;;;1.05;;
77872;SDS011;67068;52.116;4.440;2023-11-21T08:53:42;2.93;;;0.90;;
77872;SDS011;67068;52.116;4.440;2023-11-21T08:56:08;4.17;;;1.00;;
77872;SDS011;67068;52.116;4.440;2023-11-21T08:58:37;3.33;;;0.93;;
77872;SDS011;67068;52.116;4.440;2023-11-21T09:01:02;3.77;;;1.10;;
77872;SDS011;67068;52.116;4.440;2023-11-21T09:03:27;4.85;;;1.30;;
77872;SDS011;67068;52.116;4.440;2023-11-21T09:05:53;5.00;;;1.00;;
77872;SDS011;67068;52.116;4.440;2023-11-21T09:08:18;2.83;;;0.90;;
77872;SDS011;67068;52.116;4.440;2023-11-21T09:10:44;2.80;;;0.80;;
77872;SDS011;67068;52.116;4.440;2023-11-21T09:13:12;4.53;;;1.15;;
77872;SDS011;67068;52.116;4.440;2023-11-21T09:15:37;3.92;;;1.00;;
77872;SDS011;67068;52.116;4.440;2023-11-21T09:18:03;3.63;;;0.90;;
77872;SDS011;67068;52.116;4.440;2023-11-21T09:20:28;4.80;;;1.00;;
77872;SDS011;67068;52.116;4.440;2023-11-21T09:22:53;2.70;;;0.90;;
77872;SDS011;67068;52.116;4.440;2023-11-21T09:25:20;3.15;;;0.98;;
77872;SDS011;67068;52.116;4.440;2023-11-21T09:27:46;3.90;;;1.08;;
77872;SDS011;67068;52.116;4.440;2023-11-21T09:30:12;3.35;;;0.80;;
77872;SDS011;67068;52.116;4.440;2023-11-21T09:32:39;10.48;;;1.20;;
77872;SDS011;67068;52.116;4.440;2023-11-21T09:35:05;6.38;;;0.93;;
77872;SDS011;67068;52.116;4.440;2023-11-21T09:37:33;2.42;;;0.80;;
77872;SDS011;67068;52.116;4.440;2023-11-21T09:39:58;5.82;;;1.10;;
77872;SDS011;67068;52.116;4.440;2023-11-21T09:42:29;7.80;;;1.15;;
77872;SDS011;67068;52.116;4.440;2023-11-21T09:45:02;9.20;;;1.30;;
77872;SDS011;67068;52.116;4.440;2023-11-21T09:47:29;5.70;;;1.20;;
77872;SDS011;67068;52.116;4.440;2023-11-21T09:49:54;11.43;;;1.70;;
77872;SDS011;67068;52.116;4.440;2023-11-21T09:52:22;14.02;;;1.60;;
77872;SDS011;67068;52.116;4.440;2023-11-21T09:54:50;9.10;;;1.67;;
77872;SDS011;67068;52.116;4.440;2023-11-21T09:57:16;7.03;;;1.38;;
77872;SDS011;67068;52.116;4.440;2023-11-21T09:59:43;7.20;;;1.58;;
77872;SDS011;67068;52.116;4.440;2023-11-21T10:02:10;7.32;;;1.50;;
77872;SDS011;67068;52.116;4.440;2023-11-21T10:04:38;6.68;;;1.35;;
77872;SDS011;67068;52.116;4.440;2023-11-21T10:07:03;5.17;;;1.10;;
77872;SDS011;67068;52.116;4.440;2023-11-21T10:09:33;10.52;;;1.50;;
77872;SDS011;67068;52.116;4.440;2023-11-21T10:11:59;8.60;;;1.30;;
77872;SDS011;67068;52.116;4.440;2023-11-21T10:14:28;10.13;;;1.73;;
77872;SDS011;67068;52.116;4.440;2023-11-21T10:16:54;7.97;;;1.48;;
77872;SDS011;67068;52.116;4.440;2023-11-21T10:19:20;7.35;;;1.17;;
77872;SDS011;67068;52.116;4.440;2023-11-21T10:21:46;6.65;;;1.20;;
77872;SDS011;67068;52.116;4.440;2023-11-21T10:24:11;9.23;;;1.33;;
77872;SDS011;67068;52.116;4.440;2023-11-21T10:26:37;10.48;;;1.30;;
77872;SDS011;67068;52.116;4.440;2023-11-21T10:29:03;8.80;;;1.60;;
77872;SDS011;67068;52.116;4.440;2023-11-21T10:31:29;11.87;;;1.33;;
77872;SDS011;67068;52.116;4.440;2023-11-21T10:33:57;5.90;;;1.00;;
77872;SDS011;67068;52.116;4.440;2023-11-21T10:36:26;6.13;;;1.20;;
77872;SDS011;67068;52.116;4.440;2023-11-21T10:38:54;5.30;;;0.90;;
77872;SDS011;67068;52.116;4.440;2023-11-21T10:41:20;8.32;;;1.10;;
77872;SDS011;67068;52.116;4.440;2023-11-21T10:43:45;3.40;;;0.85;;
77872;SDS011;67068;52.116;4.440;2023-11-21T10:46:10;5.97;;;1.20;;
77872;SDS011;67068;52.116;4.440;2023-11-21T10:48:36;4.93;;;1.40;;
77872;SDS011;67068;52.116;4.440;2023-11-21T10:51:06;5.60;;;0.70;;
77872;SDS011;67068;52.116;4.440;2023-11-21T10:53:32;5.20;;;1.33;;
77872;SDS011;67068;52.116;4.440;2023-11-21T10:56:05;7.70;;;1.10;;
77872;SDS011;67068;52.116;4.440;2023-11-21T10:58:32;4.90;;;1.10;;
77872;SDS011;67068;52.116;4.440;2023-11-21T11:00:58;5.03;;;1.10;;
77872;SDS011;67068;52.116;4.440;2023-11-21T11:03:23;4.60;;;1.05;;
77872;SDS011;67068;52.116;4.440;2023-11-21T11:05:48;3.97;;;0.80;;
77872;SDS011;67068;52.116;4.440;2023-11-21T11:08:16;4.38;;;0.80;;
77872;SDS011;67068;52.116;4.440;2023-11-21T11:10:44;6.57;;;1.10;;
77872;SDS011;67068;52.116;4.440;2023-11-21T11:13:11;4.72;;;0.90;;
77872;SDS011;67068;52.116;4.440;2023-11-21T11:15:39;4.60;;;0.93;;
77872;SDS011;67068;52.116;4.440;2023-11-21T11:18:05;5.85;;;1.08;;
77872;SDS011;67068;52.116;4.440;2023-11-21T11:20:35;5.90;;;1.33;;
77872;SDS011;67068;52.116;4.440;2023-11-21T11:25:30;7.30;;;1.10;;
77872;SDS011;67068;52.116;4.440;2023-11-21T11:35:33;5.65;;;1.10;;
77872;SDS011;67068;52.116;4.440;2023-11-21T11:37:59;9.98;;;1.50;;
77872;SDS011;67068;52.116;4.440;2023-11-21T11:40:46;5.03;;;1.15;;
77872;SDS011;67068;52.116;4.440;2023-11-21T11:43:10;5.93;;;1.30;;
77872;SDS011;67068;52.116;4.440;2023-11-21T11:45:36;6.03;;;1.45;;
77872;SDS011;67068;52.116;4.440;2023-11-21T11:48:06;7.78;;;1.30;;
77872;SDS011;67068;52.116;4.440;2023-11-21T11:50:31;5.45;;;1.35;;
77872;SDS011;67068;52.116;4.440;2023-11-21T11:53:11;7.75;;;1.38;;
77872;SDS011;67068;52.116;4.440;2023-11-21T11:55:37;7.97;;;1.52;;
77872;SDS011;67068;52.116;4.440;2023-11-21T11:58:04;7.63;;;1.50;;
77872;SDS011;67068;52.116;4.440;2023-11-21T12:00:34;8.63;;;1.50;;
77872;SDS011;67068;52.116;4.440;2023-11-21T12:03:03;5.72;;;1.20;;
77872;SDS011;67068;52.116;4.440;2023-11-21T12:05:29;6.53;;;1.30;;
77872;SDS011;67068;52.116;4.440;2023-11-21T12:07:57;4.72;;;1.08;;
77872;SDS011;67068;52.116;4.440;2023-11-21T12:10:33;6.07;;;1.23;;
77872;SDS011;67068;52.116;4.440;2023-11-21T12:13:08;8.20;;;1.13;;
77872;SDS011;67068;52.116;4.440;2023-11-21T12:15:35;4.78;;;1.20;;
77872;SDS011;67068;52.116;4.440;2023-11-21T12:18:00;5.55;;;1.10;;
77872;SDS011;67068;52.116;4.440;2023-11-21T12:20:26;11.38;;;3.38;;
77872;SDS011;67068;52.116;4.440;2023-11-21T12:22:52;9.40;;;2.72;;
77872;SDS011;67068;52.116;4.440;2023-11-21T12:25:19;8.55;;;2.60;;
77872;SDS011;67068;52.116;4.440;2023-11-21T12:27:45;7.82;;;2.42;;
77872;SDS011;67068;52.116;4.440;2023-11-21T12:30:11;8.05;;;2.40;;
77872;SDS011;67068;52.116;4.440;2023-11-21T12:32:42;11.25;;;2.50;;
77872;SDS011;67068;52.116;4.440;2023-11-21T12:35:08;6.72;;;2.35;;
77872;SDS011;67068;52.116;4.440;2023-11-21T12:37:34;8.73;;;2.33;;
77872;SDS011;67068;52.116;4.440;2023-11-21T12:40:00;7.70;;;2.35;;
77872;SDS011;67068;52.116;4.440;2023-11-21T12:42:25;6.33;;;1.90;;
77872;SDS011;67068;52.116;4.440;2023-11-21T12:50:11;8.10;;;2.10;;
77872;SDS011;67068;52.116;4.440;2023-11-21T12:52:46;6.15;;;1.70;;
77872;SDS011;67068;52.116;4.440;2023-11-21T12:55:19;7.15;;;2.00;;
77872;SDS011;67068;52.116;4.440;2023-11-21T12:57:47;7.80;;;2.03;;
77872;SDS011;67068;52.116;4.440;2023-11-21T13:00:15;9.55;;;1.98;;
77872;SDS011;67068;52.116;4.440;2023-11-21T13:02:52;8.90;;;2.28;;
77872;SDS011;67068;52.116;4.440;2023-11-21T13:05:26;8.55;;;1.90;;
77872;SDS011;67068;52.116;4.440;2023-11-21T13:07:51;11.30;;;2.15;;
77872;SDS011;67068;52.116;4.440;2023-11-21T13:10:19;8.27;;;2.45;;
77872;SDS011;67068;52.116;4.440;2023-11-21T13:12:45;10.75;;;2.30;;
77872;SDS011;67068;52.116;4.440;2023-11-21T13:15:14;9.93;;;1.88;;
77872;SDS011;67068;52.116;4.440;2023-11-21T13:17:42;7.53;;;2.40;;
77872;SDS011;67068;52.116;4.440;2023-11-21T13:20:07;8.75;;;2.33;;
77872;SDS011;67068;52.116;4.440;2023-11-21T13:22:35;7.63;;;1.67;;
77872;SDS011;67068;52.116;4.440;2023-11-21T13:25:00;8.13;;;1.88;;
77872;SDS011;67068;52.116;4.440;2023-11-21T13:27:32;9.55;;;1.75;;
77872;SDS011;67068;52.116;4.440;2023-11-21T13:29:58;5.22;;;1.52;;
77872;SDS011;67068;52.116;4.440;2023-11-21T13:32:24;8.55;;;1.90;;
77872;SDS011;67068;52.116;4.440;2023-11-21T13:34:50;12.43;;;2.08;;
77872;SDS011;67068;52.116;4.440;2023-11-21T13:39:44;8.43;;;1.73;;
77872;SDS011;67068;52.116;4.440;2023-11-21T13:42:10;8.07;;;1.98;;
77872;SDS011;67068;52.116;4.440;2023-11-21T13:44:36;7.85;;;1.60;;
77872;SDS011;67068;52.116;4.440;2023-11-21T13:47:03;7.38;;;1.58;;
77872;SDS011;67068;52.116;4.440;2023-11-21T13:49:30;14.15;;;2.10;;
77872;SDS011;67068;52.116;4.440;2023-11-21T13:52:00;12.27;;;1.75;;
77872;SDS011;67068;52.116;4.440;2023-11-21T13:54:27;13.25;;;1.90;;
77872;SDS011;67068;52.116;4.440;2023-11-21T13:56:54;11.73;;;1.80;;
77872;SDS011;67068;52.116;4.440;2023-11-21T13:59:19;6.18;;;1.42;;
77872;SDS011;67068;52.116;4.440;2023-11-21T14:01:53;7.70;;;1.67;;
77872;SDS011;67068;52.116;4.440;2023-11-21T14:04:23;9.27;;;1.80;;
77872;SDS011;67068;52.116;4.440;2023-11-21T14:06:57;9.82;;;2.03;;
77872;SDS011;67068;52.116;4.440;2023-11-21T14:09:25;7.90;;;1.83;;
77872;SDS011;67068;52.116;4.440;2023-11-21T14:11:58;7.22;;;1.35;;
77872;SDS011;67068;52.116;4.440;2023-11-21T14:14:24;7.25;;;1.50;;
77872;SDS011;67068;52.116;4.440;2023-11-21T14:16:51;7.78;;;1.55;;
77872;SDS011;67068;52.116;4.440;2023-11-21T14:19:16;9.25;;;1.58;;
77872;SDS011;67068;52.116;4.440;2023-11-21T14:21:42;8.20;;;1.88;;
77872;SDS011;67068;52.116;4.440;2023-11-21T14:26:37;6.55;;;1.55;;
77872;SDS011;67068;52.116;4.440;2023-11-21T14:29:02;5.10;;;1.50;;
77872;SDS011;67068;52.116;4.440;2023-11-21T14:31:28;4.33;;;1.30;;
77872;SDS011;67068;52.116;4.440;2023-11-21T14:33:55;10.25;;;1.85;;
77872;SDS011;67068;52.116;4.440;2023-11-21T14:36:20;9.03;;;2.00;;
77872;SDS011;67068;52.116;4.440;2023-11-21T14:38:45;15.77;;;2.47;;
77872;SDS011;67068;52.116;4.440;2023-11-21T14:41:11;9.10;;;2.07;;
77872;SDS011;67068;52.116;4.440;2023-11-21T14:43:36;9.50;;;2.65;;
77872;SDS011;67068;52.116;4.440;2023-11-21T14:46:03;7.10;;;1.92;;
77872;SDS011;67068;52.116;4.440;2023-11-21T14:48:31;7.22;;;1.75;;
77872;SDS011;67068;52.116;4.440;2023-11-21T14:51:12;7.13;;;2.45;;
77872;SDS011;67068;52.116;4.440;2023-11-21T14:53:55;7.28;;;1.67;;
77872;SDS011;67068;52.116;4.440;2023-11-21T14:56:24;7.90;;;1.85;;
77872;SDS011;67068;52.116;4.440;2023-11-21T14:58:56;7.25;;;2.20;;
77872;SDS011;67068;52.116;4.440;2023-11-21T15:01:22;10.70;;;1.80;;
77872;SDS011;67068;52.116;4.440;2023-11-21T15:04:16;5.95;;;1.52;;